createdAt,value
2017-11-22T00:00:25.382Z,0
2017-11-22T00:01:05.910Z,0
2017-11-22T00:01:46.487Z,0
2017-11-22T00:02:27.043Z,0
2017-11-22T00:03:07.563Z,0
2017-11-22T00:03:48.111Z,0
2017-11-22T00:04:28.625Z,0
2017-11-22T00:05:09.147Z,0
2017-11-22T00:05:49.691Z,0
2017-11-22T00:06:30.215Z,0
2017-11-22T00:07:10.748Z,0
2017-11-22T00:07:51.283Z,0
2017-11-22T00:08:31.821Z,0
2017-11-22T00:09:12.328Z,0
2017-11-22T00:09:52.855Z,0
2017-11-22T00:10:33.392Z,0
2017-11-22T00:11:13.931Z,0
2017-11-22T00:11:54.439Z,0
2017-11-22T00:12:34.965Z,0
2017-11-22T00:13:15.498Z,0
2017-11-22T00:13:56.029Z,0
2017-11-22T00:14:36.563Z,0
2017-11-22T00:15:17.100Z,0
2017-11-22T00:15:57.632Z,0
2017-11-22T00:16:38.160Z,0
2017-11-22T00:17:18.696Z,0
2017-11-22T00:17:59.216Z,0
2017-11-22T00:18:39.759Z,0
2017-11-22T00:19:20.282Z,0
2017-11-22T00:20:00.810Z,0
2017-11-22T00:20:41.351Z,0
2017-11-22T00:21:21.870Z,0
2017-11-22T00:22:02.401Z,0
2017-11-22T00:22:42.910Z,0
2017-11-22T00:23:23.443Z,0
2017-11-22T00:24:03.978Z,0
2017-11-22T00:24:44.493Z,0
2017-11-22T00:25:25.010Z,0
2017-11-22T00:26:05.543Z,0
2017-11-22T00:26:46.079Z,0
2017-11-22T00:27:26.601Z,0
2017-11-22T00:28:07.174Z,0
2017-11-22T00:28:47.725Z,0
2017-11-22T00:29:28.365Z,0
2017-11-22T00:30:08.894Z,0
2017-11-22T00:30:49.433Z,0
2017-11-22T00:31:29.971Z,0
2017-11-22T00:32:10.484Z,0
2017-11-22T00:32:51.027Z,0
2017-11-22T00:33:31.526Z,0
2017-11-22T00:34:12.065Z,0
2017-11-22T00:34:52.612Z,0
2017-11-22T00:35:33.148Z,0
2017-11-22T00:36:13.678Z,0
2017-11-22T00:36:54.219Z,0
2017-11-22T00:37:34.735Z,0
2017-11-22T00:38:15.269Z,0
2017-11-22T00:38:55.798Z,0
2017-11-22T00:39:36.326Z,0
2017-11-22T00:40:16.865Z,0
2017-11-22T00:40:57.391Z,0
2017-11-22T00:41:38.003Z,0
2017-11-22T00:42:18.516Z,0
2017-11-22T00:42:59.038Z,0
2017-11-22T00:43:39.578Z,0
2017-11-22T00:44:20.097Z,0
2017-11-22T00:45:00.632Z,0
2017-11-22T00:45:41.157Z,0
2017-11-22T00:46:21.678Z,0
2017-11-22T00:47:02.214Z,0
2017-11-22T00:47:42.746Z,0
2017-11-22T00:48:23.270Z,0
2017-11-22T00:49:03.794Z,0
2017-11-22T00:49:44.327Z,0
2017-11-22T00:50:24.857Z,0
2017-11-22T00:51:05.391Z,0
2017-11-22T00:51:45.910Z,0
2017-11-22T00:52:26.451Z,0
2017-11-22T00:53:06.997Z,0
2017-11-22T00:53:47.534Z,0
2017-11-22T00:54:28.068Z,0
2017-11-22T00:55:08.604Z,0
2017-11-22T00:55:49.131Z,0
2017-11-22T00:56:29.657Z,0
2017-11-22T00:57:10.188Z,0
2017-11-22T00:57:50.716Z,0
2017-11-22T00:58:31.245Z,0
2017-11-22T00:59:11.762Z,0
2017-11-22T00:59:52.293Z,0
2017-11-22T01:00:32.843Z,0
2017-11-22T01:01:13.381Z,0
2017-11-22T01:01:53.918Z,0
2017-11-22T01:02:34.446Z,0
2017-11-22T01:03:14.989Z,0
2017-11-22T01:03:55.499Z,0
2017-11-22T01:04:36.035Z,0
2017-11-22T01:05:16.560Z,0
2017-11-22T01:05:57.081Z,0
2017-11-22T01:06:37.604Z,0
2017-11-22T01:07:18.127Z,0
2017-11-22T01:07:58.652Z,0
2017-11-22T01:08:39.195Z,0
2017-11-22T01:09:19.711Z,0
2017-11-22T01:10:00.249Z,0
2017-11-22T01:10:40.784Z,0
2017-11-22T01:11:21.324Z,0
2017-11-22T01:12:01.861Z,0
2017-11-22T01:12:42.390Z,0
2017-11-22T01:13:22.917Z,0
2017-11-22T01:14:03.445Z,0
2017-11-22T01:14:43.969Z,0
2017-11-22T01:15:24.482Z,0
2017-11-22T01:16:05.009Z,0
2017-11-22T01:16:45.548Z,0
2017-11-22T01:17:26.074Z,0
2017-11-22T01:18:06.617Z,0
2017-11-22T01:18:47.133Z,0
2017-11-22T01:19:27.654Z,0
2017-11-22T01:20:08.181Z,0
2017-11-22T01:20:48.723Z,0
2017-11-22T01:21:29.244Z,0
2017-11-22T01:22:09.804Z,0
2017-11-22T01:22:50.559Z,0
2017-11-22T01:23:31.165Z,0
2017-11-22T01:24:11.699Z,0
2017-11-22T01:24:52.230Z,0
2017-11-22T01:25:32.752Z,0
2017-11-22T01:26:13.321Z,0
2017-11-22T01:26:53.849Z,0
2017-11-22T01:27:34.385Z,0
2017-11-22T01:28:14.907Z,0
2017-11-22T01:28:55.439Z,0
2017-11-22T01:29:35.969Z,0
2017-11-22T01:30:16.518Z,0
2017-11-22T01:30:57.030Z,0
2017-11-22T01:31:37.569Z,0
2017-11-22T01:32:18.111Z,0
2017-11-22T01:32:58.629Z,0
2017-11-22T01:33:39.154Z,0
2017-11-22T01:34:19.671Z,0
2017-11-22T01:35:00.207Z,0
2017-11-22T01:35:40.750Z,0
2017-11-22T01:36:21.272Z,0
2017-11-22T01:37:01.803Z,0
2017-11-22T01:37:42.333Z,0
2017-11-22T01:38:22.869Z,0
2017-11-22T01:39:03.396Z,0
2017-11-22T01:39:43.925Z,0
2017-11-22T01:40:24.456Z,0
2017-11-22T01:41:04.976Z,0
2017-11-22T01:41:45.514Z,0
2017-11-22T01:42:26.050Z,0
2017-11-22T01:43:06.581Z,0
2017-11-22T01:43:47.101Z,0
2017-11-22T01:44:27.627Z,0
2017-11-22T01:45:08.175Z,0
2017-11-22T01:45:48.716Z,0
2017-11-22T01:46:29.242Z,0
2017-11-22T01:47:09.786Z,0
2017-11-22T01:47:50.316Z,0
2017-11-22T01:48:30.838Z,0
2017-11-22T01:49:11.368Z,0
2017-11-22T01:49:51.901Z,0
2017-11-22T01:50:32.411Z,0
2017-11-22T01:51:12.940Z,0
2017-11-22T01:51:53.475Z,0
2017-11-22T01:52:34.015Z,0
2017-11-22T01:53:14.539Z,0
2017-11-22T01:53:55.079Z,0
2017-11-22T01:54:35.625Z,0
2017-11-22T01:55:16.145Z,0
2017-11-22T01:55:56.680Z,0
2017-11-22T01:56:37.224Z,0
2017-11-22T01:57:17.754Z,0
2017-11-22T01:57:58.279Z,0
2017-11-22T01:58:38.820Z,0
2017-11-22T01:59:19.339Z,0
2017-11-22T01:59:59.873Z,0
2017-11-22T02:00:40.429Z,0
2017-11-22T02:01:20.961Z,0
2017-11-22T02:02:01.487Z,0
2017-11-22T02:02:42.022Z,0
2017-11-22T02:03:22.549Z,0
2017-11-22T02:04:03.077Z,0
2017-11-22T02:04:43.596Z,0
2017-11-22T02:05:24.143Z,0
2017-11-22T02:06:04.677Z,0
2017-11-22T02:06:45.187Z,0
2017-11-22T02:07:25.725Z,0
2017-11-22T02:08:06.246Z,0
2017-11-22T02:08:46.772Z,0
2017-11-22T02:09:27.297Z,0
2017-11-22T02:10:07.821Z,0
2017-11-22T02:10:48.349Z,0
2017-11-22T02:11:28.877Z,0
2017-11-22T02:12:09.398Z,0
2017-11-22T02:12:49.935Z,0
2017-11-22T02:13:30.468Z,0
2017-11-22T02:14:11.006Z,0
2017-11-22T02:14:51.538Z,0
2017-11-22T02:15:32.057Z,0
2017-11-22T02:16:12.651Z,0
2017-11-22T02:16:53.185Z,0
2017-11-22T02:17:33.705Z,0
2017-11-22T02:18:14.239Z,0
2017-11-22T02:18:54.773Z,0
2017-11-22T02:19:35.303Z,0
2017-11-22T02:20:15.840Z,0
2017-11-22T02:20:56.362Z,0
2017-11-22T02:21:36.923Z,0
2017-11-22T02:22:17.461Z,0
2017-11-22T02:22:57.981Z,0
2017-11-22T02:23:38.514Z,0
2017-11-22T02:24:19.058Z,0
2017-11-22T02:24:59.586Z,0
2017-11-22T02:25:40.109Z,0
2017-11-22T02:26:20.645Z,0
2017-11-22T02:27:01.178Z,0
2017-11-22T02:27:41.708Z,0
2017-11-22T02:28:22.252Z,0
2017-11-22T02:29:02.789Z,0
2017-11-22T02:29:43.317Z,0
2017-11-22T02:30:23.850Z,0
2017-11-22T02:31:04.387Z,0
2017-11-22T02:31:44.947Z,0
2017-11-22T02:32:25.489Z,0
2017-11-22T02:33:06.018Z,0
2017-11-22T02:33:46.537Z,0
2017-11-22T02:34:27.068Z,0
2017-11-22T02:35:07.607Z,0
2017-11-22T02:35:48.138Z,0
2017-11-22T02:36:28.678Z,0
2017-11-22T02:37:09.217Z,0
2017-11-22T02:37:49.737Z,0
2017-11-22T02:38:30.272Z,0
2017-11-22T02:39:10.803Z,0
2017-11-22T02:39:51.354Z,0
2017-11-22T02:40:31.889Z,0
2017-11-22T02:41:12.419Z,0
2017-11-22T02:41:52.961Z,0
2017-11-22T02:42:33.480Z,0
2017-11-22T02:43:14.063Z,0
2017-11-22T02:43:54.594Z,0
2017-11-22T02:44:35.128Z,0
2017-11-22T02:45:15.662Z,0
2017-11-22T02:45:56.196Z,0
2017-11-22T02:46:36.731Z,0
2017-11-22T02:47:17.253Z,0
2017-11-22T02:47:57.772Z,0
2017-11-22T02:48:38.319Z,0
2017-11-22T02:49:18.833Z,0
2017-11-22T02:49:59.361Z,0
2017-11-22T02:50:39.883Z,0
2017-11-22T02:51:20.415Z,0
2017-11-22T02:52:00.943Z,0
2017-11-22T02:52:41.462Z,0
2017-11-22T02:53:21.986Z,0
2017-11-22T02:54:02.514Z,0
2017-11-22T02:54:43.049Z,0
2017-11-22T02:55:23.578Z,0
2017-11-22T02:56:04.096Z,0
2017-11-22T02:56:44.637Z,0
2017-11-22T02:57:25.171Z,0
2017-11-22T02:58:05.698Z,0
2017-11-22T02:58:46.227Z,0
2017-11-22T02:59:26.766Z,0
2017-11-22T03:00:07.278Z,0
2017-11-22T03:00:47.816Z,0
2017-11-22T03:01:28.353Z,0
2017-11-22T03:02:08.888Z,0
2017-11-22T03:02:49.422Z,0
2017-11-22T03:03:29.933Z,0
2017-11-22T03:04:10.472Z,0
2017-11-22T03:04:50.993Z,0
2017-11-22T03:05:31.537Z,0
2017-11-22T03:06:12.063Z,0
2017-11-22T03:06:52.594Z,0
2017-11-22T03:07:33.197Z,0
2017-11-22T03:08:13.727Z,0
2017-11-22T03:08:54.260Z,0
2017-11-22T03:09:34.805Z,0
2017-11-22T03:10:15.328Z,0
2017-11-22T03:10:55.862Z,0
2017-11-22T03:11:36.395Z,0
2017-11-22T03:12:16.939Z,0
2017-11-22T03:12:57.480Z,0
2017-11-22T03:13:37.987Z,0
2017-11-22T03:14:18.527Z,0
2017-11-22T03:14:59.066Z,0
2017-11-22T03:15:39.584Z,0
2017-11-22T03:16:20.208Z,0
2017-11-22T03:17:00.738Z,0
2017-11-22T03:17:41.266Z,0
2017-11-22T03:18:21.798Z,0
2017-11-22T03:19:02.344Z,0
2017-11-22T03:19:42.859Z,0
2017-11-22T03:20:23.399Z,0
2017-11-22T03:21:03.945Z,0
2017-11-22T03:21:44.486Z,0
2017-11-22T03:22:25.021Z,0
2017-11-22T03:23:05.560Z,0
2017-11-22T03:23:46.114Z,0
2017-11-22T03:24:26.641Z,0
2017-11-22T03:25:07.168Z,0
2017-11-22T03:25:47.701Z,0
2017-11-22T03:26:28.238Z,0
2017-11-22T03:27:08.775Z,0
2017-11-22T03:27:49.314Z,0
2017-11-22T03:28:29.839Z,0
2017-11-22T03:29:10.362Z,0
2017-11-22T03:29:50.894Z,0
2017-11-22T03:30:31.427Z,0
2017-11-22T03:31:11.963Z,0
2017-11-22T03:31:52.477Z,0
2017-11-22T03:32:33.010Z,0
2017-11-22T03:33:20.216Z,0
2017-11-22T03:34:00.746Z,0
2017-11-22T03:34:41.258Z,0
2017-11-22T03:35:21.791Z,0
2017-11-22T03:36:02.321Z,0
2017-11-22T03:36:42.849Z,0
2017-11-22T03:37:23.385Z,0
2017-11-22T03:38:03.913Z,0
2017-11-22T03:38:44.429Z,0
2017-11-22T03:39:24.962Z,0
2017-11-22T03:40:05.501Z,0
2017-11-22T03:40:46.036Z,0
2017-11-22T03:41:26.572Z,0
2017-11-22T03:42:07.098Z,0
2017-11-22T03:42:47.624Z,0
2017-11-22T03:43:28.160Z,0
2017-11-22T03:44:08.697Z,0
2017-11-22T03:44:49.224Z,0
2017-11-22T03:45:29.761Z,0
2017-11-22T03:46:10.288Z,0
2017-11-22T03:46:50.820Z,0
2017-11-22T03:47:31.358Z,0
2017-11-22T03:48:11.877Z,0
2017-11-22T03:48:52.413Z,0
2017-11-22T03:49:32.951Z,0
2017-11-22T03:50:13.482Z,0
2017-11-22T03:50:54.046Z,0
2017-11-22T03:51:34.550Z,0
2017-11-22T03:52:15.081Z,0
2017-11-22T03:52:55.616Z,0
2017-11-22T03:53:36.147Z,0
2017-11-22T03:54:16.675Z,0
2017-11-22T03:54:57.212Z,0
2017-11-22T03:55:37.746Z,0
2017-11-22T03:56:18.270Z,0
2017-11-22T03:56:58.831Z,0
2017-11-22T03:57:39.365Z,0
2017-11-22T03:58:19.888Z,0
2017-11-22T03:59:00.416Z,0
2017-11-22T03:59:40.951Z,0
2017-11-22T04:00:21.469Z,0
2017-11-22T04:01:02.009Z,0
2017-11-22T04:01:42.527Z,0
2017-11-22T04:02:23.046Z,0
2017-11-22T04:03:03.580Z,0
2017-11-22T04:03:44.111Z,0
2017-11-22T04:04:24.633Z,0
2017-11-22T04:05:05.171Z,0
2017-11-22T04:05:45.692Z,0
2017-11-22T04:06:26.232Z,0
2017-11-22T04:07:06.759Z,0
2017-11-22T04:07:47.279Z,0
2017-11-22T04:08:27.815Z,0
2017-11-22T04:09:08.353Z,0
2017-11-22T04:09:48.877Z,0
2017-11-22T04:10:29.410Z,0
2017-11-22T04:11:09.953Z,0
2017-11-22T04:11:50.484Z,0
2017-11-22T04:12:31.002Z,0
2017-11-22T04:13:11.523Z,0
2017-11-22T04:13:52.041Z,0
2017-11-22T04:14:32.674Z,0
2017-11-22T04:15:13.207Z,0
2017-11-22T04:15:53.739Z,0
2017-11-22T04:16:34.277Z,0
2017-11-22T04:17:14.795Z,0
2017-11-22T04:17:55.322Z,0
2017-11-22T04:18:35.848Z,0
2017-11-22T04:19:16.374Z,0
2017-11-22T04:19:56.902Z,0
2017-11-22T04:20:37.435Z,0
2017-11-22T04:21:17.990Z,0
2017-11-22T04:21:58.541Z,0
2017-11-22T04:22:39.065Z,0
2017-11-22T04:23:19.580Z,0
2017-11-22T04:24:00.098Z,0
2017-11-22T04:24:40.632Z,0
2017-11-22T04:25:21.153Z,0
2017-11-22T04:26:01.688Z,0
2017-11-22T04:26:42.217Z,0
2017-11-22T04:27:22.747Z,0
2017-11-22T04:28:03.265Z,0
2017-11-22T04:28:43.785Z,0
2017-11-22T04:29:24.341Z,0
2017-11-22T04:30:04.874Z,0
2017-11-22T04:30:45.401Z,0
2017-11-22T04:31:25.929Z,0
2017-11-22T04:32:06.454Z,0
2017-11-22T04:32:46.976Z,0
2017-11-22T04:33:27.512Z,0
2017-11-22T04:34:08.044Z,0
2017-11-22T04:34:48.577Z,0
2017-11-22T04:35:29.110Z,0
2017-11-22T04:36:09.634Z,0
2017-11-22T04:36:50.155Z,0
2017-11-22T04:37:30.690Z,0
2017-11-22T04:38:11.226Z,0
2017-11-22T04:38:51.754Z,0
2017-11-22T04:39:32.278Z,0
2017-11-22T04:40:12.791Z,0
2017-11-22T04:40:53.325Z,0
2017-11-22T04:41:33.843Z,0
2017-11-22T04:42:14.355Z,0
2017-11-22T04:42:54.894Z,0
2017-11-22T04:43:35.416Z,0
2017-11-22T04:44:15.960Z,0
2017-11-22T04:44:56.520Z,0
2017-11-22T04:45:37.048Z,0
2017-11-22T04:46:17.682Z,0
2017-11-22T04:46:58.210Z,0
2017-11-22T04:47:38.752Z,0
2017-11-22T04:48:19.281Z,0
2017-11-22T04:48:59.816Z,0
2017-11-22T04:49:40.325Z,0
2017-11-22T04:50:20.856Z,0
2017-11-22T04:51:01.393Z,0
2017-11-22T04:51:41.972Z,0
2017-11-22T04:52:22.502Z,0
2017-11-22T04:53:03.025Z,0
2017-11-22T04:53:43.568Z,0
2017-11-22T04:54:24.091Z,0
2017-11-22T04:55:04.620Z,0
2017-11-22T04:55:45.155Z,0
2017-11-22T04:56:25.685Z,0
2017-11-22T04:57:06.222Z,0
2017-11-22T04:57:46.752Z,0
2017-11-22T04:58:27.279Z,0
2017-11-22T04:59:07.807Z,0
2017-11-22T04:59:48.328Z,0
2017-11-22T05:00:28.872Z,0
2017-11-22T05:01:09.392Z,0
2017-11-22T05:01:49.923Z,0
2017-11-22T05:02:30.461Z,0
2017-11-22T05:03:10.993Z,0
2017-11-22T05:03:51.525Z,0
2017-11-22T05:04:32.049Z,0
2017-11-22T05:05:12.589Z,0
2017-11-22T05:05:53.113Z,0
2017-11-22T05:06:33.646Z,0
2017-11-22T05:07:14.170Z,0
2017-11-22T05:07:54.692Z,0
2017-11-22T05:08:35.223Z,0
2017-11-22T05:09:15.764Z,0
2017-11-22T05:09:56.297Z,0
2017-11-22T05:10:36.824Z,0
2017-11-22T05:11:18.063Z,0
2017-11-22T05:11:58.562Z,0
2017-11-22T05:12:39.558Z,0
2017-11-22T05:13:20.181Z,0
2017-11-22T05:14:00.754Z,0
2017-11-22T05:14:41.270Z,0
2017-11-22T05:15:21.808Z,0
2017-11-22T05:16:02.341Z,0
2017-11-22T05:16:42.873Z,0
2017-11-22T05:17:23.407Z,0
2017-11-22T05:18:03.949Z,0
2017-11-22T05:18:44.524Z,0
2017-11-22T05:19:25.057Z,0
2017-11-22T05:20:05.586Z,0
2017-11-22T05:20:46.133Z,0
2017-11-22T05:21:26.684Z,0
2017-11-22T05:22:07.206Z,0
2017-11-22T05:22:47.733Z,0
2017-11-22T05:23:28.258Z,0
2017-11-22T05:24:08.814Z,0
2017-11-22T05:24:49.358Z,0
2017-11-22T05:25:29.890Z,0
2017-11-22T05:26:10.418Z,0
2017-11-22T05:26:51.949Z,0
2017-11-22T05:27:33.144Z,0
2017-11-22T05:28:13.658Z,0
2017-11-22T05:28:54.199Z,0
2017-11-22T05:29:34.729Z,0
2017-11-22T05:30:15.279Z,0
2017-11-22T05:30:55.807Z,0
2017-11-22T05:31:36.344Z,0
2017-11-22T05:32:16.987Z,0
2017-11-22T05:32:57.504Z,0
2017-11-22T05:33:38.024Z,0
2017-11-22T05:34:18.552Z,0
2017-11-22T05:34:59.076Z,0
2017-11-22T05:35:39.608Z,0
2017-11-22T05:36:20.149Z,0
2017-11-22T05:37:02.264Z,0
2017-11-22T05:37:42.799Z,0
2017-11-22T05:38:23.334Z,0
2017-11-22T05:39:03.871Z,0
2017-11-22T05:39:44.410Z,0
2017-11-22T05:40:24.957Z,0
2017-11-22T05:41:05.469Z,0
2017-11-22T05:41:45.999Z,0
2017-11-22T05:42:26.518Z,0
2017-11-22T05:43:07.042Z,0
2017-11-22T05:43:47.570Z,0
2017-11-22T05:44:28.105Z,0
2017-11-22T05:45:08.655Z,0
2017-11-22T05:45:49.187Z,0
2017-11-22T05:46:29.716Z,0
2017-11-22T05:47:10.244Z,0
2017-11-22T05:47:51.037Z,0
2017-11-22T05:48:31.594Z,0
2017-11-22T05:49:12.125Z,0
2017-11-22T05:49:52.663Z,0
2017-11-22T05:50:33.180Z,0
2017-11-22T05:51:13.714Z,0
2017-11-22T05:51:54.258Z,0
2017-11-22T05:52:34.782Z,0
2017-11-22T05:53:15.307Z,0
2017-11-22T05:53:55.856Z,0
2017-11-22T05:54:36.387Z,0
2017-11-22T05:55:16.917Z,0
2017-11-22T05:55:57.465Z,0
2017-11-22T05:56:38.014Z,0
2017-11-22T05:57:18.536Z,0
2017-11-22T05:57:59.091Z,0
2017-11-22T05:58:39.616Z,0
2017-11-22T05:59:20.187Z,0
2017-11-22T06:00:00.717Z,0
2017-11-22T06:00:41.240Z,0
2017-11-22T06:01:21.770Z,0
2017-11-22T06:02:02.317Z,0
2017-11-22T06:02:42.860Z,0
2017-11-22T06:03:23.393Z,0
2017-11-22T06:04:03.937Z,0
2017-11-22T06:04:44.457Z,0
2017-11-22T06:05:24.996Z,0
2017-11-22T06:06:05.534Z,0
2017-11-22T06:06:46.066Z,0
2017-11-22T06:07:26.599Z,0
2017-11-22T06:08:07.141Z,0
2017-11-22T06:08:47.651Z,0
2017-11-22T06:09:28.304Z,0
2017-11-22T06:10:08.843Z,0
2017-11-22T06:10:49.379Z,0
2017-11-22T06:11:29.919Z,0
2017-11-22T06:12:10.442Z,0
2017-11-22T06:12:50.980Z,0
2017-11-22T06:13:31.509Z,0
2017-11-22T06:14:12.038Z,0
2017-11-22T06:14:53.201Z,0
2017-11-22T06:15:33.744Z,0
2017-11-22T06:16:14.275Z,0
2017-11-22T06:16:54.813Z,0
2017-11-22T06:17:35.341Z,0
2017-11-22T06:18:15.871Z,0
2017-11-22T06:18:56.409Z,0
2017-11-22T06:19:36.941Z,0
2017-11-22T06:20:17.473Z,0
2017-11-22T06:20:58.016Z,0
2017-11-22T06:21:38.556Z,0
2017-11-22T06:22:19.083Z,0
2017-11-22T06:22:59.625Z,0
2017-11-22T06:23:40.164Z,0
2017-11-22T06:24:20.707Z,0
2017-11-22T06:25:01.262Z,0
2017-11-22T06:25:41.798Z,0
2017-11-22T06:26:22.382Z,0
2017-11-22T06:27:03.044Z,0
2017-11-22T06:27:43.566Z,0
2017-11-22T06:28:24.111Z,0
2017-11-22T06:29:04.664Z,0
2017-11-22T06:29:45.202Z,0
2017-11-22T06:30:25.739Z,0
2017-11-22T06:31:08.172Z,0
2017-11-22T06:31:48.716Z,0
2017-11-22T06:32:29.259Z,4
2017-11-22T06:33:09.795Z,4
2017-11-22T06:33:50.307Z,4
2017-11-22T06:34:30.835Z,4
2017-11-22T06:35:11.369Z,0
2017-11-22T06:35:51.920Z,4
2017-11-22T06:36:32.443Z,4
2017-11-22T06:37:12.967Z,8
2017-11-22T06:37:53.484Z,4
2017-11-22T06:38:34.024Z,8
2017-11-22T06:39:14.578Z,8
2017-11-22T06:39:55.248Z,8
2017-11-22T06:40:35.806Z,8
2017-11-22T06:41:16.339Z,8
2017-11-22T06:41:56.872Z,12
2017-11-22T06:42:37.577Z,12
2017-11-22T06:43:18.097Z,12
2017-11-22T06:43:58.645Z,12
2017-11-22T06:44:39.175Z,20
2017-11-22T06:45:19.716Z,20
2017-11-22T06:46:00.264Z,20
2017-11-22T06:46:40.813Z,20
2017-11-22T06:47:21.391Z,24
2017-11-22T06:48:01.905Z,28
2017-11-22T06:48:42.445Z,28
2017-11-22T06:49:22.967Z,32
2017-11-22T06:50:03.504Z,32
2017-11-22T06:50:44.051Z,36
2017-11-22T06:51:24.557Z,40
2017-11-22T06:52:05.105Z,44
2017-11-22T06:52:45.649Z,48
2017-11-22T06:53:26.176Z,52
2017-11-22T06:54:06.699Z,52
2017-11-22T06:54:47.247Z,60
2017-11-22T06:55:27.774Z,60
2017-11-22T06:56:08.300Z,68
2017-11-22T06:56:48.831Z,68
2017-11-22T06:57:29.369Z,72
2017-11-22T06:58:09.901Z,76
2017-11-22T06:58:50.501Z,84
2017-11-22T06:59:31.040Z,92
2017-11-22T07:00:11.556Z,96
2017-11-22T07:00:52.090Z,104
2017-11-22T07:01:32.613Z,108
2017-11-22T07:02:13.214Z,112
2017-11-22T07:02:53.754Z,116
2017-11-22T07:03:34.298Z,120
2017-11-22T07:04:14.927Z,128
2017-11-22T07:04:55.456Z,132
2017-11-22T07:05:35.994Z,140
2017-11-22T07:06:16.519Z,144
2017-11-22T07:06:57.047Z,152
2017-11-22T07:07:37.582Z,160
2017-11-22T07:08:18.127Z,172
2017-11-22T07:08:58.668Z,180
2017-11-22T07:09:39.181Z,196
2017-11-22T07:10:19.714Z,212
2017-11-22T07:11:00.250Z,220
2017-11-22T07:11:40.794Z,232
2017-11-22T07:12:21.324Z,244
2017-11-22T07:13:01.839Z,256
2017-11-22T07:13:42.374Z,268
2017-11-22T07:14:22.908Z,276
2017-11-22T07:15:03.444Z,288
2017-11-22T07:15:43.987Z,292
2017-11-22T07:16:24.521Z,300
2017-11-22T07:17:05.051Z,308
2017-11-22T07:17:45.594Z,312
2017-11-22T07:18:26.129Z,312
2017-11-22T07:19:06.686Z,320
2017-11-22T07:19:47.217Z,328
2017-11-22T07:20:27.767Z,336
2017-11-22T07:21:08.296Z,340
2017-11-22T07:21:48.846Z,344
2017-11-22T07:22:29.376Z,360
2017-11-22T07:23:10.068Z,380
2017-11-22T07:23:50.829Z,396
2017-11-22T07:24:31.371Z,408
2017-11-22T07:25:11.902Z,420
2017-11-22T07:25:52.432Z,432
2017-11-22T07:26:32.972Z,448
2017-11-22T07:27:13.497Z,456
2017-11-22T07:27:54.035Z,472
2017-11-22T07:28:34.577Z,488
2017-11-22T07:29:15.117Z,504
2017-11-22T07:29:55.651Z,524
2017-11-22T07:30:36.181Z,548
2017-11-22T07:31:16.711Z,568
2017-11-22T07:31:57.273Z,592
2017-11-22T07:32:37.847Z,608
2017-11-22T07:33:18.374Z,620
2017-11-22T07:33:58.901Z,632
2017-11-22T07:34:39.438Z,652
2017-11-22T07:35:19.988Z,684
2017-11-22T07:36:00.537Z,704
2017-11-22T07:36:41.084Z,712
2017-11-22T07:37:21.617Z,732
2017-11-22T07:38:02.165Z,760
2017-11-22T07:38:42.714Z,792
2017-11-22T07:39:23.250Z,792
2017-11-22T07:40:03.774Z,812
2017-11-22T07:40:44.308Z,828
2017-11-22T07:41:24.862Z,816
2017-11-22T07:42:05.412Z,844
2017-11-22T07:42:45.940Z,900
2017-11-22T07:43:26.472Z,988
2017-11-22T07:44:07.056Z,1028
2017-11-22T07:44:47.592Z,1080
2017-11-22T07:45:28.135Z,1124
2017-11-22T07:46:08.666Z,1168
2017-11-22T07:46:49.210Z,1184
2017-11-22T07:47:29.730Z,1212
2017-11-22T07:48:10.267Z,1240
2017-11-22T07:48:50.794Z,1264
2017-11-22T07:49:31.336Z,1284
2017-11-22T07:50:11.877Z,1300
2017-11-22T07:50:52.414Z,1328
2017-11-22T07:51:32.944Z,1344
2017-11-22T07:52:13.461Z,1356
2017-11-22T07:52:53.992Z,1372
2017-11-22T07:53:34.564Z,1396
2017-11-22T07:54:15.069Z,1436
2017-11-22T07:54:55.607Z,1480
2017-11-22T07:55:36.159Z,1516
2017-11-22T07:56:16.681Z,1532
2017-11-22T07:56:57.210Z,1560
2017-11-22T07:57:37.732Z,1588
2017-11-22T07:58:18.253Z,1612
2017-11-22T07:58:58.788Z,1648
2017-11-22T07:59:39.315Z,1684
2017-11-22T08:00:19.938Z,1716
2017-11-22T08:01:00.414Z,1744
2017-11-22T08:01:40.955Z,1780
2017-11-22T08:02:21.489Z,1808
2017-11-22T08:03:02.017Z,1836
2017-11-22T08:03:42.543Z,1852
2017-11-22T08:04:23.071Z,1844
2017-11-22T08:05:03.608Z,1820
2017-11-22T08:05:44.140Z,1792
2017-11-22T08:06:24.668Z,1768
2017-11-22T08:07:05.179Z,1744
2017-11-22T08:07:45.708Z,1732
2017-11-22T08:08:26.235Z,1732
2017-11-22T08:09:06.772Z,1740
2017-11-22T08:09:47.308Z,1764
2017-11-22T08:10:27.822Z,1812
2017-11-22T08:11:08.359Z,1864
2017-11-22T08:11:48.895Z,1928
2017-11-22T08:12:29.435Z,1992
2017-11-22T08:13:09.964Z,2060
2017-11-22T08:13:50.475Z,2112
2017-11-22T08:14:31.011Z,2172
2017-11-22T08:15:11.563Z,2268
2017-11-22T08:15:52.097Z,2368
2017-11-22T08:16:32.624Z,2440
2017-11-22T08:17:13.163Z,2480
2017-11-22T08:17:53.680Z,2524
2017-11-22T08:18:34.215Z,2600
2017-11-22T08:19:14.727Z,2684
2017-11-22T08:19:55.259Z,2716
2017-11-22T08:20:35.792Z,2716
2017-11-22T08:21:16.327Z,2700
2017-11-22T08:21:56.851Z,2732
2017-11-22T08:22:37.393Z,2796
2017-11-22T08:23:17.905Z,2884
2017-11-22T08:23:58.437Z,2952
2017-11-22T08:24:38.968Z,2988
2017-11-22T08:25:19.510Z,2952
2017-11-22T08:26:00.034Z,2896
2017-11-22T08:26:40.566Z,2900
2017-11-22T08:27:21.163Z,2904
2017-11-22T08:28:01.787Z,2916
2017-11-22T08:28:42.321Z,2992
2017-11-22T08:29:22.835Z,3016
2017-11-22T08:30:03.376Z,2964
2017-11-22T08:30:43.910Z,2964
2017-11-22T08:31:24.430Z,3028
2017-11-22T08:32:04.961Z,3092
2017-11-22T08:32:45.504Z,3220
2017-11-22T08:33:26.131Z,3328
2017-11-22T08:34:06.664Z,3380
2017-11-22T08:34:47.197Z,3448
2017-11-22T08:35:27.728Z,3528
2017-11-22T08:36:08.326Z,3560
2017-11-22T08:36:48.849Z,3624
2017-11-22T08:37:29.388Z,3708
2017-11-22T08:38:09.910Z,3804
2017-11-22T08:38:50.466Z,3780
2017-11-22T08:39:30.971Z,3708
2017-11-22T08:40:11.511Z,3720
2017-11-22T08:40:52.067Z,3888
2017-11-22T08:41:32.641Z,4072
2017-11-22T08:42:13.135Z,4092
2017-11-22T08:42:53.662Z,4144
2017-11-22T08:43:34.191Z,4224
2017-11-22T08:44:14.733Z,4212
2017-11-22T08:44:55.256Z,4260
2017-11-22T08:45:35.787Z,4356
2017-11-22T08:46:16.313Z,4536
2017-11-22T08:46:56.846Z,4560
2017-11-22T08:47:37.376Z,4484
2017-11-22T08:48:17.924Z,4652
2017-11-22T08:48:58.441Z,4708
2017-11-22T08:49:38.965Z,4600
2017-11-22T08:50:19.501Z,4676
2017-11-22T08:51:00.035Z,4608
2017-11-22T08:51:40.572Z,4568
2017-11-22T08:52:21.096Z,4772
2017-11-22T08:53:01.626Z,5052
2017-11-22T08:53:42.189Z,5092
2017-11-22T08:54:22.718Z,4928
2017-11-22T08:55:03.305Z,4916
2017-11-22T08:55:43.821Z,5128
2017-11-22T08:56:24.348Z,4996
2017-11-22T08:57:04.888Z,5056
2017-11-22T08:57:45.431Z,5036
2017-11-22T08:58:25.930Z,5088
2017-11-22T08:59:06.456Z,4760
2017-11-22T08:59:46.993Z,4492
2017-11-22T09:00:27.525Z,4588
2017-11-22T09:01:08.058Z,4972
2017-11-22T09:01:48.569Z,5468
2017-11-22T09:02:29.112Z,5624
2017-11-22T09:03:09.660Z,5480
2017-11-22T09:03:50.189Z,5268
2017-11-22T09:04:30.716Z,5364
2017-11-22T09:05:11.247Z,5316
2017-11-22T09:05:51.777Z,5200
2017-11-22T09:06:32.314Z,5296
2017-11-22T09:07:12.891Z,5736
2017-11-22T09:07:53.418Z,6024
2017-11-22T09:08:33.959Z,6056
2017-11-22T09:09:14.483Z,6124
2017-11-22T09:09:55.006Z,5948
2017-11-22T09:10:35.573Z,5688
2017-11-22T09:11:16.060Z,5072
2017-11-22T09:11:56.594Z,4732
2017-11-22T09:12:37.120Z,5032
2017-11-22T09:13:17.656Z,4376
2017-11-22T09:13:58.183Z,4152
2017-11-22T09:14:38.719Z,4116
2017-11-22T09:15:19.255Z,4584
2017-11-22T09:15:59.781Z,4664
2017-11-22T09:16:40.323Z,4480
2017-11-22T09:17:20.872Z,4452
2017-11-22T09:18:01.417Z,4780
2017-11-22T09:18:41.941Z,5280
2017-11-22T09:19:22.473Z,6096
2017-11-22T09:20:03.016Z,6648
2017-11-22T09:20:43.548Z,6300
2017-11-22T09:21:24.072Z,6564
2017-11-22T09:22:04.601Z,7408
2017-11-22T09:22:45.174Z,7048
2017-11-22T09:23:25.796Z,7252
2017-11-22T09:24:06.326Z,7256
2017-11-22T09:24:49.754Z,6852
2017-11-22T09:25:30.288Z,7780
2017-11-22T09:26:10.821Z,8244
2017-11-22T09:26:51.342Z,7328
2017-11-22T09:27:31.868Z,7612
2017-11-22T09:28:12.396Z,6988
2017-11-22T09:28:52.934Z,9256
2017-11-22T09:29:33.468Z,10324
2017-11-22T09:30:14.009Z,10848
2017-11-22T09:30:54.564Z,11168
2017-11-22T09:31:35.086Z,10296
2017-11-22T09:32:15.617Z,10136
2017-11-22T09:32:56.154Z,10456
2017-11-22T09:33:36.682Z,9636
2017-11-22T09:34:17.220Z,8180
2017-11-22T09:34:57.751Z,6316
2017-11-22T09:35:38.284Z,6220
2017-11-22T09:36:18.826Z,6600
2017-11-22T09:36:59.354Z,7416
2017-11-22T09:37:39.892Z,7464
2017-11-22T09:38:20.427Z,6820
2017-11-22T09:39:01.000Z,6544
2017-11-22T09:39:41.537Z,7436
2017-11-22T09:40:22.067Z,6932
2017-11-22T09:41:02.604Z,6932
2017-11-22T09:41:43.127Z,6860
2017-11-22T09:42:23.663Z,6948